Weather reports worldwide

Advertisment
Mont Aigoual, France (7560): temperature & dewpoint: 09.01.2021 17:00:00 - 15.01.2021 17:00:00 (CET)Mont Aigoual, France (7560): wind speed & gusts: 09.01.2021 17:00:00 - 15.01.2021 17:00:00 (CET)Mont Aigoual, France (7560): wind direction: 09.01.2021 17:00:00 - 15.01.2021 17:00:00 (CET)Mont Aigoual, France (7560): visibility: 09.01.2021 17:00:00 - 15.01.2021 17:00:00 (CET)Mont Aigoual, France (7560): precipitation: 09.01.2021 17:00:00 - 15.01.2021 17:00:00 (CET)
Date & Time tt [°C] td [°C] ff [km/h] ff [kn] fx [km/h] fx [kn] dd vv [km] rr [mm]
15.01.2021 17:00:00 -4,2 -4,5 6 3 - - SSE 0,1 0,0
15.01.2021 16:00:00 -3,9 -4,2 - - - - - 0,1 0,0
15.01.2021 15:00:00 -3,6 -3,7 32 17 83 45 N 0,1 0,0
15.01.2021 14:00:00 -3,4 -3,5 51 28 99 53 N 0,1 0,0
15.01.2021 13:00:00 -3,2 -3,3 56 30 116 62 NNW 0,1 0,4
15.01.2021 12:00:00 -3,2 -3,3 70 38 132 71 NNW 0,1 1,0
15.01.2021 11:00:00 -3,3 -3,4 90 48 139 75 NNW 0,1 1,2
15.01.2021 10:00:00 -3,4 -3,5 - - - - - 0,1 1,6
15.01.2021 09:00:00 -3,8 -3,9 77 42 127 68 NNW 0,1 0,2
15.01.2021 08:00:00 -3,6 -3,7 78 42 139 75 NNW 0,1 0,2
15.01.2021 07:00:00 -3,5 -3,6 87 47 136 74 NNW 0,1 0,2
15.01.2021 06:00:00 -3,0 -3,1 79 43 120 65 NNW 0,1 0,2
15.01.2021 05:00:00 -2,2 -2,2 74 40 111 60 NW 0,1 0,0
15.01.2021 04:00:00 -2,2 -2,2 66 36 121 65 NW 0,1 0,0
15.01.2021 03:00:00 -1,5 -1,5 69 37 125 67 NNW 0,1 1,0
15.01.2021 02:00:00 -1,0 -1,0 59 32 97 52 NW 0,1 1,8
15.01.2021 01:00:00 -0,7 -0,7 52 28 101 55 NNW 0,2 1,4
15.01.2021 00:00:00 -0,8 -0,8 52 28 104 56 NNW 0,1 0,4
14.01.2021 23:00:00 -0,9 -0,9 66 36 114 62 NNW 0,1 0,6
14.01.2021 22:00:00 -0,6 -0,6 57 31 99 54 NNW 0,2 2,2
14.01.2021 21:00:00 -0,5 -0,5 51 28 97 53 NNW 0,1 0,6
14.01.2021 20:00:00 -0,8 -0,8 56 31 99 54 NNW 0,1 0,2
14.01.2021 19:00:00 -1,0 -1,0 65 35 103 55 NNW 0,1 0,0
14.01.2021 18:00:00 -1,0 -1,0 67 36 126 68 NNW 0,1 0,0
14.01.2021 17:00:00 -1,2 -1,2 73 39 123 67 NW 0,1 0,2
14.01.2021 16:00:00 -1,0 -1,0 73 40 120 65 NNW 0,1 0,2
14.01.2021 15:00:00 -1,0 -1,0 74 40 140 76 NNW 0,2 0,2
14.01.2021 14:00:00 -1,2 -1,2 76 41 132 71 NNW 0,2 0,0
14.01.2021 13:00:00 -1,8 -1,8 99 54 144 78 NNW 0,1 0,0
14.01.2021 12:00:00 -2,0 -2,0 86 47 136 74 NNW 0,2 0,2
14.01.2021 11:00:00 -2,2 -2,2 82 44 132 71 NNW 0,2 0,4
14.01.2021 10:00:00 -2,6 -2,6 90 49 134 72 NNW 0,2 0,0
14.01.2021 09:00:00 -2,7 -2,7 99 54 147 79 NW 0,1 0,0
14.01.2021 08:00:00 -2,8 -2,8 98 53 138 74 NW 0,2 0,0
14.01.2021 07:00:00 -2,7 -2,7 97 53 135 73 NW 0,2 0,0
14.01.2021 06:00:00 -2,5 -2,5 94 51 134 72 NW 0,1 0,0
14.01.2021 05:00:00 -2,1 -2,1 96 52 139 75 NW 0,1 0,0
14.01.2021 04:00:00 -2,1 -2,1 99 54 134 73 NW 0,1 0,0
14.01.2021 03:00:00 -1,9 -1,9 92 50 123 67 NW 0,1 0,0
14.01.2021 02:00:00 -1,8 -1,8 90 48 126 68 NW 0,1 0,0
14.01.2021 01:00:00 -1,9 -1,9 88 48 121 66 NW 0,1 0,0
14.01.2021 00:00:00 -1,1 -1,1 89 48 130 70 NW 0,1 0,0
13.01.2021 23:00:00 -0,8 -0,8 90 49 122 66 NW 0,1 0,0
13.01.2021 22:00:00 -0,6 -0,6 93 50 127 68 NW 0,1 0,2
13.01.2021 21:00:00 -0,4 -0,4 78 42 115 62 NW 0,1 0,0
13.01.2021 20:00:00 -0,5 -0,5 94 51 128 69 NW 0,1 0,0
13.01.2021 19:00:00 -0,2 -0,2 82 44 126 68 NNW 0,1 0,0
13.01.2021 18:00:00 -0,2 -0,2 82 45 126 68 NNW 0,1 0,0
13.01.2021 17:00:00 0,0 0,0 74 40 116 63 NNW 0,2 0,2
13.01.2021 16:00:00 0,0 0,0 76 41 122 66 NNW 0,3 0,2
13.01.2021 15:00:00 0,0 0,0 81 44 123 67 NNW 0,2 0,0
13.01.2021 14:00:00 0,0 0,0 87 47 121 65 NNW 0,4 0,0
13.01.2021 13:00:00 0,0 0,0 84 45 122 66 NNW 0,4 0,2
13.01.2021 12:00:00 -0,1 -0,1 80 43 119 64 NNW 0,5 0,2
13.01.2021 11:00:00 -0,2 -0,2 79 43 112 61 NNW 0,4 0,2
13.01.2021 10:00:00 -0,2 -0,2 26 14 101 55 N 0,5 0,2
13.01.2021 09:00:00 -0,5 -0,5 24 13 82 45 NNW - 0,2
13.01.2021 08:00:00 -0,7 -0,7 39 21 106 58 N - 0,0
13.01.2021 07:00:00 -0,9 -0,9 44 24 98 53 NNW - 0,0
13.01.2021 06:00:00 -1,3 -1,3 48 26 98 53 NNW 0,1 0,0
13.01.2021 05:00:00 -1,5 -1,5 55 30 101 54 NNW 0,1 0,0
13.01.2021 04:00:00 -1,8 -1,8 61 33 108 58 NW 0,1 0,0
13.01.2021 03:00:00 -2,1 -2,1 61 33 101 55 NNW 0,1 0,0
13.01.2021 02:00:00 -2,4 -2,4 62 33 - - NNW 0,1 0,0
13.01.2021 01:00:00 -2,4 -2,4 25 14 89 48 N 0,1 0,0
13.01.2021 00:00:00 -2,6 -2,6 56 31 - - NNW 0,1 0,0
12.01.2021 23:00:00 -3,2 -3,3 68 37 118 64 NNW 0,1 0,0
12.01.2021 22:00:00 -3,8 -3,9 83 45 123 67 NNW 0,1 0,0
12.01.2021 21:00:00 -4,3 -4,6 84 46 - - NNW 0,1 0,0
12.01.2021 20:00:00 -4,8 -5,1 - - 125 67 - 0,1 0,0
12.01.2021 19:00:00 -4,9 -5,3 77 42 - - NNW 0,1 0,0
12.01.2021 18:00:00 -4,7 -5,0 90 49 132 72 NW 0,1 0,0
12.01.2021 17:00:00 -4,9 -5,2 84 45 - - NNW 0,1 0,0
12.01.2021 16:00:00 -5,0 -5,4 87 47 - - NNW 0,1 0,0
12.01.2021 15:00:00 -5,3 -5,7 101 54 142 77 NNW 0,1 0,0
12.01.2021 14:00:00 -6,1 -6,6 96 52 132 72 NNW 0,1 0,0
12.01.2021 13:00:00 -6,5 -7,0 87 47 127 69 NNW 0,1 0,0
12.01.2021 12:00:00 -6,1 -6,5 93 50 149 80 NNW 0,1 0,0
12.01.2021 11:00:00 -6,5 -7,0 78 42 116 63 NNW 0,1 0,0
12.01.2021 10:00:00 -7,5 -8,2 76 41 105 57 NNW 0,1 0,0
12.01.2021 09:00:00 -7,0 -7,5 74 40 - - N 0,1 0,0
12.01.2021 08:00:00 -7,6 -8,1 - - - - - 0,1 0,0
12.01.2021 07:00:00 -8,9 -9,7 86 46 118 64 NNW 0,5 0,0
12.01.2021 06:00:00 -9,0 -9,8 84 46 116 63 NNW 0,1 0,0
12.01.2021 05:00:00 -6,1 -8,4 88 47 116 62 NNW 5 0,0
12.01.2021 04:00:00 -6,4 -8,4 86 47 111 60 NNW 1,9 0,0
12.01.2021 03:00:00 -4,3 -6,9 85 46 111 60 NNW 1,2 0,0
12.01.2021 02:00:00 -5,5 -7,2 74 40 114 62 NNW 1,6 0,2
12.01.2021 01:00:00 -5,5 -7,5 83 45 109 59 NNW 0,3 0,0
12.01.2021 00:00:00 -4,3 -7,6 74 40 105 57 N 0,4 0,2
11.01.2021 23:00:00 -4,9 -9,5 72 39 107 58 N 0,6 0,4
11.01.2021 22:00:00 -6,3 -12,8 71 38 107 58 N 0,8 0,0
11.01.2021 21:00:00 -7,7 -14,1 70 38 106 58 N 0,5 0,0
11.01.2021 20:00:00 -7,9 -13,0 68 37 98 53 N 0,3 0,0
11.01.2021 19:00:00 -6,8 -13,7 67 36 98 53 N 0,8 0,0
11.01.2021 18:00:00 -5,4 -13,0 68 37 101 54 NNW 0,9 0,0
11.01.2021 17:00:00 -5,1 -13,4 49 26 101 54 N 7 0,0
11.01.2021 16:00:00 -4,6 -14,2 61 33 81 44 N 1,6 0,0
11.01.2021 15:00:00 -3,8 -13,8 57 31 79 43 N 2,7 0,0
11.01.2021 14:00:00 -3,6 -14,1 51 27 70 38 N 12 0,0
11.01.2021 13:00:00 -3,6 -13,8 32 18 52 28 N 20 0,0
11.01.2021 12:00:00 -3,2 -14,6 35 19 49 26 N 20 0,0
11.01.2021 11:00:00 -4,0 -15,0 36 20 61 33 N 20 0,0
11.01.2021 10:00:00 -5,1 -15,5 46 25 58 31 N 11 0,0
11.01.2021 09:00:00 -5,4 -15,2 36 19 43 23 N 20 0,0
11.01.2021 08:00:00 -3,9 -10,7 30 16 34 18 N 20 0,0
11.01.2021 07:00:00 -4,3 -10,3 22 12 26 14 N 20 0,0
11.01.2021 06:00:00 -3,7 -9,9 19 10 31 17 N 20 0,0
11.01.2021 05:00:00 -4,3 -9,5 21 12 34 18 N 20 0,0
11.01.2021 04:00:00 -5,1 -9,0 24 13 34 19 NNE 20 0,0
11.01.2021 03:00:00 -6,1 -9,3 20 11 32 17 NNE 20 0,0
11.01.2021 02:00:00 -6,3 -9,8 19 10 37 20 NNE 20 0,0
11.01.2021 01:00:00 -6,8 -10,3 24 13 39 21 NNE 20 0,0
11.01.2021 00:00:00 -7,2 -10,9 29 15 39 21 NNE 20 0,0
10.01.2021 23:00:00 -7,7 -11,7 29 16 34 18 NNE 20 0,0
10.01.2021 22:00:00 -8,3 -10,8 18 10 22 12 NNE 20 0,0
10.01.2021 21:00:00 -7,7 -11,5 20 11 26 14 NE 20 0,0
10.01.2021 20:00:00 -7,9 -10,4 16 9 28 15 NE 20 0,0
10.01.2021 19:00:00 -8,5 -10,0 19 11 25 13 N 18 0,0
10.01.2021 18:00:00 -8,5 -11,8 16 8 48 26 N 20 0,0
10.01.2021 17:00:00 -8,1 -10,5 34 18 45 24 NNW 17 0,0
10.01.2021 16:00:00 -6,0 -8,7 16 9 29 16 W 20 0,0
10.01.2021 15:00:00 -4,8 -10,8 19 11 28 15 W 20 0,0
10.01.2021 14:00:00 -5,2 -10,2 29 15 38 20 W 20 0,0
10.01.2021 13:00:00 -4,9 -9,5 31 17 42 23 WNW 20 0,0
10.01.2021 12:00:00 -5,0 -11,4 31 17 36 20 WNW 20 0,0
10.01.2021 11:00:00 -5,5 -10,7 29 15 42 23 WNW 20 0,0
10.01.2021 10:00:00 -5,8 -10,4 23 13 35 19 NW 20 0,0
10.01.2021 09:00:00 -4,9 -9,2 9 5 20 11 WSW 20 0,0
10.01.2021 08:00:00 -5,8 -11,7 15 8 25 14 WSW 20 0,0
10.01.2021 07:00:00 -5,9 -11,2 14 8 22 12 WSW 20 0,0
10.01.2021 06:00:00 -4,9 -11,1 10 6 18 10 SW 20 0,0
10.01.2021 05:00:00 -4,3 -12,0 13 7 20 11 SSE 20 0,0
10.01.2021 04:00:00 -4,3 -13,7 9 5 16 9 SE 20 0,0
10.01.2021 03:00:00 -4,8 -11,8 9 5 13 7 SE 20 0,0
10.01.2021 02:00:00 -5,4 -12,8 9 5 16 8 NNE 20 0,0
10.01.2021 01:00:00 -5,3 -13,4 11 6 28 15 NNE 20 0,0
10.01.2021 00:00:00 -6,0 -12,5 19 11 29 16 NNE 20 0,0
09.01.2021 23:00:00 -6,0 -12,1 21 11 28 15 N 20 0,0
09.01.2021 22:00:00 -5,3 -13,9 15 8 33 18 ENE 20 0,0
09.01.2021 21:00:00 -5,2 -13,1 21 11 39 21 ENE 20 0,0
09.01.2021 20:00:00 -5,9 -11,0 26 14 42 23 NNE 20 0,0
09.01.2021 19:00:00 -5,9 -11,0 26 14 40 21 NNE 20 0,0
09.01.2021 18:00:00 -5,8 -7,9 27 14 39 21 N 20 0,0
09.01.2021 17:00:00 -5,6 -7,9 28 15 32 17 N 20 0,0

tt = temperature
td = dewpoint
ff = wind speed
fx = gusts
dd = wind direction
vv = visibility
rr = precipitation

Next stations